Time,TemperatureF,DewpointF,PressureIn,WindDirection,WindDirectionDegrees,WindSpeedMPH,WindSpeedGustMPH,Humidity,HourlyPrecipIn,Conditions,Clouds,dailyrainin,SoftwareType,DateUTC
2013-03-03 00:01:00,39.6,25.2,30.27,East,90,2.5,3.6,56,0.00,,---,0.00,VWS V14.01,2013-03-03 06:01:00,
2013-03-03 00:06:00,39.6,25.6,30.27,ESE,112,2.9,3.8,57,0.00,,---,0.00,VWS V14.01,2013-03-03 06:06:00,
2013-03-03 00:11:00,39.4,25.5,30.27,East,90,2.7,4.0,57,0.00,,---,0.00,VWS V14.01,2013-03-03 06:11:00,
2013-03-03 00:16:00,39.4,25.9,30.27,ESE,112,4.3,4.9,58,0.00,,---,0.00,VWS V14.01,2013-03-03 06:16:00,
2013-03-03 00:21:00,39.6,25.6,30.27,ESE,112,5.8,5.8,57,0.00,,---,0.00,VWS V14.01,2013-03-03 06:21:00,
2013-03-03 00:26:00,39.8,25.8,30.27,ESE,112,3.6,5.6,57,0.00,,---,0.00,VWS V14.01,2013-03-03 06:26:00,
2013-03-03 00:31:00,40.0,26.4,30.27,ESE,112,5.8,5.8,58,0.00,,---,0.00,VWS V14.01,2013-03-03 06:31:00,
2013-03-03 00:36:00,40.3,26.7,30.24,SE,135,5.6,7.2,58,0.00,,---,0.00,VWS V14.01,2013-03-03 06:36:00,
2013-03-03 00:41:00,40.3,26.7,30.24,SE,135,3.4,6.5,58,0.00,,---,0.00,VWS V14.01,2013-03-03 06:41:00,
2013-03-03 00:46:00,40.1,26.5,30.24,ESE,112,4.7,5.4,58,0.00,,---,0.00,VWS V14.01,2013-03-03 06:46:00,
2013-03-03 00:51:00,40.1,26.5,30.24,East,90,4.3,5.4,58,0.00,,---,0.00,VWS V14.01,2013-03-03 06:51:00,
2013-03-03 00:56:00,40.1,26.5,30.24,East,90,3.8,4.7,58,0.00,,---,0.00,VWS V14.01,2013-03-03 06:56:00,
2013-03-03 01:01:00,40.1,26.5,30.24,ESE,112,6.0,6.0,58,0.00,,---,0.00,VWS V14.01,2013-03-03 07:01:00,
2013-03-03 01:06:00,40.1,26.5,30.27,ESE,112,6.0,6.0,58,0.00,,---,0.00,VWS V14.01,2013-03-03 07:06:00,
2013-03-03 01:11:00,40.0,26.4,30.27,ESE,112,6.0,6.0,58,0.00,,---,0.00,VWS V14.01,2013-03-03 07:11:00,
2013-03-03 01:16:00,39.6,25.6,30.27,ESE,112,6.0,6.0,57,0.00,,---,0.00,VWS V14.01,2013-03-03 07:16:00,
2013-03-03 01:21:00,39.4,25.0,30.27,ESE,112,6.0,6.0,56,0.00,,---,0.00,VWS V14.01,2013-03-03 07:21:00,
2013-03-03 01:26:00,39.1,24.7,30.27,ESE,112,6.0,6.0,56,0.00,,---,0.00,VWS V14.01,2013-03-03 07:26:00,
2013-03-03 01:31:00,39.1,25.1,30.27,ESE,112,3.8,4.3,57,0.00,,---,0.00,VWS V14.01,2013-03-03 07:31:00,
2013-03-03 01:36:00,39.2,24.9,30.27,ESE,112,3.8,3.8,56,0.00,,---,0.00,VWS V14.01,2013-03-03 07:36:00,
2013-03-03 01:41:00,39.1,24.7,30.27,ESE,112,3.8,3.8,56,0.00,,---,0.00,VWS V14.01,2013-03-03 07:41:00,
2013-03-03 01:46:00,39.1,24.3,30.27,ESE,112,3.8,3.8,55,0.00,,---,0.00,VWS V14.01,2013-03-03 07:46:00,
2013-03-03 01:51:00,38.9,24.1,30.27,ESE,112,3.8,3.8,55,0.00,,---,0.00,VWS V14.01,2013-03-03 07:51:00,
2013-03-03 01:56:00,39.1,24.3,30.27,ESE,112,3.8,3.8,55,0.00,,---,0.00,VWS V14.01,2013-03-03 07:56:00,
2013-03-03 02:01:00,39.1,24.3,30.27,ESE,112,3.4,3.8,55,0.00,,---,0.00,VWS V14.01,2013-03-03 08:01:00,
2013-03-03 02:06:00,38.9,24.1,30.24,East,90,2.9,2.9,55,0.00,,---,0.00,VWS V14.01,2013-03-03 08:06:00,
2013-03-03 02:11:00,38.3,23.6,30.24,East,90,2.5,3.1,55,0.00,,---,0.00,VWS V14.01,2013-03-03 08:11:00,
2013-03-03 02:16:00,38.3,24.0,30.24,SE,135,1.1,3.8,56,0.00,,---,0.00,VWS V14.01,2013-03-03 08:16:00,
2013-03-03 02:21:00,38.0,23.3,30.24,East,90,2.5,3.1,55,0.00,,---,0.00,VWS V14.01,2013-03-03 08:21:00,
2013-03-03 02:26:00,37.6,23.0,30.24,East,90,2.9,3.1,55,0.00,,---,0.00,VWS V14.01,2013-03-03 08:26:00,
2013-03-03 02:31:00,37.6,23.0,30.24,SE,135,2.0,2.9,55,0.00,,---,0.00,VWS V14.01,2013-03-03 08:31:00,
2013-03-03 02:36:00,37.6,23.0,30.24,SE,135,2.2,2.9,55,0.00,,---,0.00,VWS V14.01,2013-03-03 08:36:00,
2013-03-03 02:41:00,37.8,23.1,30.24,ESE,112,5.6,5.6,55,0.00,,---,0.00,VWS V14.01,2013-03-03 08:41:00,
2013-03-03 02:46:00,38.2,23.5,30.24,ESE,112,3.8,4.7,55,0.00,,---,0.00,VWS V14.01,2013-03-03 08:46:00,
2013-03-03 02:51:00,38.0,23.3,30.21,ESE,112,3.8,3.8,55,0.00,,---,0.00,VWS V14.01,2013-03-03 08:51:00,
2013-03-03 02:56:00,38.2,23.5,30.21,East,90,4.0,6.3,55,0.00,,---,0.00,VWS V14.01,2013-03-03 08:56:00,
2013-03-03 03:01:00,38.3,23.2,30.21,ESE,112,3.4,3.4,54,0.00,,---,0.00,VWS V14.01,2013-03-03 09:01:00,
2013-03-03 03:06:00,38.3,23.2,30.24,ESE,112,3.4,3.4,54,0.00,,---,0.00,VWS V14.01,2013-03-03 09:06:00,
2013-03-03 03:11:00,38.3,23.2,30.24,ESE,112,3.4,3.4,54,0.00,,---,0.00,VWS V14.01,2013-03-03 09:11:00,
2013-03-03 03:16:00,38.3,22.7,30.24,ESE,112,3.4,3.4,53,0.00,,---,0.00,VWS V14.01,2013-03-03 09:16:00,
2013-03-03 03:21:00,38.3,22.7,30.24,ESE,112,3.4,3.4,53,0.00,,---,0.00,VWS V14.01,2013-03-03 09:21:00,
2013-03-03 03:26:00,38.2,22.6,30.24,ESE,112,3.4,3.4,53,0.00,,---,0.00,VWS V14.01,2013-03-03 09:26:00,
2013-03-03 03:31:00,38.0,22.4,30.24,ESE,112,3.4,3.4,53,0.00,,---,0.00,VWS V14.01,2013-03-03 09:31:00,
2013-03-03 03:36:00,38.0,22.4,30.24,ESE,112,3.4,3.4,53,0.00,,---,0.00,VWS V14.01,2013-03-03 09:36:00,
2013-03-03 03:41:00,38.0,22.4,30.24,ESE,112,3.8,4.0,53,0.00,,---,0.00,VWS V14.01,2013-03-03 09:41:00,
2013-03-03 03:46:00,37.8,22.2,30.24,NNE,22,4.0,4.3,53,0.00,,---,0.00,VWS V14.01,2013-03-03 09:46:00,
2013-03-03 03:51:00,37.8,22.2,30.24,East,90,2.9,4.0,53,0.00,,---,0.00,VWS V14.01,2013-03-03 09:51:00,
2013-03-03 03:56:00,38.0,22.4,30.24,ESE,112,3.8,3.8,53,0.00,,---,0.00,VWS V14.01,2013-03-03 09:56:00,
2013-03-03 04:01:00,37.6,21.6,30.24,ESE,112,2.2,3.6,52,0.00,,---,0.00,VWS V14.01,2013-03-03 10:01:00,
2013-03-03 04:06:00,77.5,77.5,30.24,ESE,112,2.9,3.8,100,0.00,,---,0.00,VWS V14.01,2013-03-03 10:06:00,
2013-03-03 04:11:00,37.6,22.1,30.24,ENE,68,3.1,4.9,53,0.00,,---,0.00,VWS V14.01,2013-03-03 10:11:00,
2013-03-03 04:16:00,37.6,22.1,30.24,ESE,112,4.7,4.9,53,0.00,,---,0.00,VWS V14.01,2013-03-03 10:16:00,
2013-03-03 04:21:00,37.6,22.1,30.24,ESE,112,4.5,6.0,53,0.00,,---,0.00,VWS V14.01,2013-03-03 10:21:00,
2013-03-03 04:26:00,37.6,22.1,30.24,East,90,3.8,3.8,53,0.00,,---,0.00,VWS V14.01,2013-03-03 10:26:00,
2013-03-03 04:31:00,37.6,22.1,30.24,ENE,68,4.3,4.3,53,0.00,,---,0.00,VWS V14.01,2013-03-03 10:31:00,
2013-03-03 04:36:00,37.6,21.6,30.24,SE,135,2.9,4.0,52,0.00,,---,0.00,VWS V14.01,2013-03-03 10:36:00,
2013-03-03 04:41:00,37.6,22.1,30.24,ESE,112,4.5,4.5,53,0.00,,---,0.00,VWS V14.01,2013-03-03 10:41:00,
2013-03-03 04:46:00,37.5,21.9,30.24,ESE,112,5.6,6.3,53,0.00,,---,0.00,VWS V14.01,2013-03-03 10:46:00,
2013-03-03 04:51:00,37.6,22.1,30.24,ESE,112,3.1,5.4,53,0.00,,---,0.00,VWS V14.01,2013-03-03 10:51:00,
2013-03-03 04:56:00,37.3,21.7,30.24,ESE,112,2.5,4.0,53,0.00,,---,0.00,VWS V14.01,2013-03-03 10:56:00,
2013-03-03 05:01:00,37.5,21.9,30.24,ESE,112,5.6,5.6,53,0.00,,---,0.00,VWS V14.01,2013-03-03 11:01:00,
2013-03-03 05:06:00,37.5,21.9,30.24,East,90,2.9,4.3,53,0.00,,---,0.00,VWS V14.01,2013-03-03 11:06:00,
2013-03-03 05:11:00,37.6,21.6,30.24,ESE,112,4.0,4.7,52,0.00,,---,0.00,VWS V14.01,2013-03-03 11:11:00,
2013-03-03 05:16:00,37.5,21.5,30.24,ESE,112,5.4,5.6,52,0.00,,---,0.00,VWS V14.01,2013-03-03 11:16:00,
2013-03-03 05:21:00,37.6,21.6,30.24,SE,135,3.8,4.9,52,0.00,,---,0.00,VWS V14.01,2013-03-03 11:21:00,
2013-03-03 05:26:00,37.8,21.8,30.24,East,90,3.6,4.9,52,0.00,,---,0.00,VWS V14.01,2013-03-03 11:26:00,
2013-03-03 05:31:00,37.6,21.6,30.24,East,90,4.9,4.9,52,0.00,,---,0.00,VWS V14.01,2013-03-03 11:31:00,
2013-03-03 05:36:00,37.5,21.9,30.24,ESE,112,4.0,4.7,53,0.00,,---,0.00,VWS V14.01,2013-03-03 11:36:00,
2013-03-03 05:41:00,37.5,21.5,30.24,ESE,112,4.9,4.9,52,0.00,,---,0.00,VWS V14.01,2013-03-03 11:41:00,
2013-03-03 05:46:00,37.3,21.7,30.24,SE,135,4.0,4.9,53,0.00,,---,0.00,VWS V14.01,2013-03-03 11:46:00,
2013-03-03 05:51:00,37.3,21.7,30.24,East,90,2.7,2.9,53,0.00,,---,0.00,VWS V14.01,2013-03-03 11:51:00,
2013-03-03 05:56:00,37.1,21.6,30.24,ESE,112,3.8,4.0,53,0.00,,---,0.00,VWS V14.01,2013-03-03 11:56:00,
2013-03-03 06:01:00,37.1,21.6,30.24,ESE,112,3.8,4.3,53,0.00,,---,0.00,VWS V14.01,2013-03-03 12:01:00,
2013-03-03 06:06:00,37.1,21.6,30.24,ENE,68,5.4,5.4,53,0.00,,---,0.00,VWS V14.01,2013-03-03 12:06:00,
2013-03-03 06:11:00,36.9,21.9,30.24,East,90,4.3,4.3,54,0.00,,---,0.00,VWS V14.01,2013-03-03 12:11:00,
2013-03-03 06:16:00,36.9,21.4,30.24,East,90,5.4,5.4,53,0.00,,---,0.00,VWS V14.01,2013-03-03 12:16:00,
2013-03-03 06:21:00,36.8,23.0,30.21,East,90,4.9,6.0,57,0.00,,---,0.00,VWS V14.01,2013-03-03 12:21:00,
2013-03-03 06:26:00,36.6,23.6,30.21,East,90,5.4,5.4,59,0.00,,---,0.00,VWS V14.01,2013-03-03 12:26:00,
2013-03-03 06:31:00,36.4,24.2,30.21,SE,135,4.0,4.9,61,0.00,,---,0.00,VWS V14.01,2013-03-03 12:31:00,
2013-03-03 06:36:00,36.2,24.1,30.24,ESE,112,3.1,3.8,61,0.00,,---,0.00,VWS V14.01,2013-03-03 12:36:00,
2013-03-03 06:41:00,36.0,24.3,30.24,East,90,2.5,3.4,62,0.00,,---,0.00,VWS V14.01,2013-03-03 12:41:00,
2013-03-03 06:46:00,35.9,23.4,30.24,SE,135,2.0,2.5,60,0.00,,---,0.00,VWS V14.01,2013-03-03 12:46:00,
2013-03-03 06:51:00,36.0,23.1,30.24,ENE,68,5.4,5.6,59,0.00,,---,0.00,VWS V14.01,2013-03-03 12:51:00,
2013-03-03 06:56:00,36.0,22.7,30.24,East,90,3.8,4.3,58,0.00,,---,0.00,VWS V14.01,2013-03-03 12:56:00,
2013-03-03 07:01:00,36.0,23.1,30.24,ESE,112,2.2,4.3,59,0.00,,---,0.00,VWS V14.01,2013-03-03 13:01:00,
2013-03-03 07:06:00,36.0,23.9,30.24,SE,135,3.1,5.4,61,0.00,,---,0.00,VWS V14.01,2013-03-03 13:06:00,
2013-03-03 07:11:00,36.0,23.9,30.24,South,180,2.2,3.8,61,0.00,,---,0.00,VWS V14.01,2013-03-03 13:11:00,
2013-03-03 07:16:00,36.2,24.5,30.24,ESE,112,4.3,5.8,62,0.00,,---,0.00,VWS V14.01,2013-03-03 13:16:00,
2013-03-03 07:21:00,37.3,25.5,30.24,East,90,3.6,4.9,62,0.00,,---,0.00,VWS V14.01,2013-03-03 13:21:00,
2013-03-03 07:26:00,38.3,25.7,30.24,SE,135,2.7,4.9,60,0.00,,---,0.00,VWS V14.01,2013-03-03 13:26:00,
2013-03-03 07:31:00,39.4,25.9,30.24,SE,135,2.9,4.3,58,0.00,,---,0.00,VWS V14.01,2013-03-03 13:31:00,
2013-03-03 07:36:00,40.5,26.0,30.24,ESE,112,4.0,5.6,56,0.00,,---,0.00,VWS V14.01,2013-03-03 13:36:00,
2013-03-03 07:41:00,41.2,25.8,30.24,ESE,112,3.1,6.0,54,0.00,,---,0.00,VWS V14.01,2013-03-03 13:41:00,
2013-03-03 07:46:00,42.2,26.4,30.24,ESE,112,4.0,4.9,53,0.00,,---,0.00,VWS V14.01,2013-03-03 13:46:00,
2013-03-03 07:51:00,43.0,26.1,30.24,East,90,3.4,5.8,51,0.00,,---,0.00,VWS V14.01,2013-03-03 13:51:00,
2013-03-03 07:56:00,43.8,26.4,30.24,ESE,112,2.5,4.9,50,0.00,,---,0.00,VWS V14.01,2013-03-03 13:56:00,
2013-03-03 08:01:00,44.6,26.6,30.24,SE,135,3.4,5.8,49,0.00,,---,0.00,VWS V14.01,2013-03-03 14:01:00,
2013-03-03 08:06:00,45.1,27.1,30.24,SE,135,6.0,7.6,49,0.00,,---,0.00,VWS V14.01,2013-03-03 14:06:00,
2013-03-03 08:11:00,45.8,27.2,30.24,East,90,2.9,4.9,48,0.00,,---,0.00,VWS V14.01,2013-03-03 14:11:00,
2013-03-03 08:16:00,46.5,27.4,30.24,ESE,112,4.3,6.5,47,0.00,,---,0.00,VWS V14.01,2013-03-03 14:16:00,
2013-03-03 08:21:00,47.4,27.7,30.24,SE,135,6.0,6.0,46,0.00,,---,0.00,VWS V14.01,2013-03-03 14:21:00,
2013-03-03 08:26:00,48.3,27.4,30.24,SE,135,3.4,3.6,44,0.00,,---,0.00,VWS V14.01,2013-03-03 14:26:00,
2013-03-03 08:31:00,48.6,27.2,30.24,East,90,5.6,6.0,43,0.00,,---,0.00,VWS V14.01,2013-03-03 14:31:00,
2013-03-03 08:36:00,49.2,27.1,30.24,SE,135,3.8,7.2,42,0.00,,---,0.00,VWS V14.01,2013-03-03 14:36:00,
2013-03-03 08:41:00,49.9,27.1,30.24,East,90,5.8,5.8,41,0.00,,---,0.00,VWS V14.01,2013-03-03 14:41:00,
2013-03-03 08:46:00,50.4,27.0,30.24,East,90,5.4,7.6,40,0.00,,---,0.00,VWS V14.01,2013-03-03 14:46:00,
2013-03-03 08:51:00,50.9,27.5,30.24,SE,135,3.8,7.8,40,0.00,,---,0.00,VWS V14.01,2013-03-03 14:51:00,
2013-03-03 08:56:00,52.2,28.6,30.24,ESE,112,6.3,6.3,40,0.00,,---,0.00,VWS V14.01,2013-03-03 14:56:00,
2013-03-03 09:01:00,52.7,28.5,30.24,ESE,112,7.4,7.8,39,0.00,,---,0.00,VWS V14.01,2013-03-03 15:01:00,
2013-03-03 09:06:00,53.2,28.3,30.21,SE,135,2.7,6.3,38,0.00,,---,0.00,VWS V14.01,2013-03-03 15:06:00,
2013-03-03 09:11:00,54.0,29.0,30.21,SE,135,4.9,6.0,38,0.00,,---,0.00,VWS V14.01,2013-03-03 15:11:00,
2013-03-03 09:16:00,54.7,28.9,30.21,SE,135,8.1,10.5,37,0.00,,---,0.00,VWS V14.01,2013-03-03 15:16:00,
2013-03-03 09:21:00,54.8,28.4,30.24,SE,135,3.8,3.8,36,0.00,,---,0.00,VWS V14.01,2013-03-03 15:21:00,
2013-03-03 09:26:00,55.9,29.4,30.24,East,90,7.6,9.6,36,0.00,,---,0.00,VWS V14.01,2013-03-03 15:26:00,
2013-03-03 09:31:00,56.8,30.1,30.24,SE,135,3.6,4.0,36,0.00,,---,0.00,VWS V14.01,2013-03-03 15:31:00,
2013-03-03 09:36:00,57.3,30.6,30.24,SE,135,4.5,7.6,36,0.00,,---,0.00,VWS V14.01,2013-03-03 15:36:00,
2013-03-03 09:41:00,58.6,31.0,30.24,SE,135,4.0,6.3,35,0.00,,---,0.00,VWS V14.01,2013-03-03 15:41:00,
2013-03-03 09:46:00,59.3,31.6,30.24,SE,135,4.3,5.4,35,0.00,,---,0.00,VWS V14.01,2013-03-03 15:46:00,
2013-03-03 09:51:00,60.2,32.4,30.24,ESE,112,3.8,5.8,35,0.00,,---,0.00,VWS V14.01,2013-03-03 15:51:00,
2013-03-03 09:56:00,61.6,33.0,30.24,SE,135,4.0,4.0,34,0.00,,---,0.00,VWS V14.01,2013-03-03 15:56:00,
2013-03-03 10:01:00,62.3,33.6,30.24,South,180,3.6,7.4,34,0.00,,---,0.00,VWS V14.01,2013-03-03 16:01:00,
2013-03-03 10:06:00,63.2,33.6,30.21,ESE,112,6.5,7.2,33,0.00,,---,0.00,VWS V14.01,2013-03-03 16:06:00,
2013-03-03 10:11:00,63.7,33.3,30.21,East,90,3.4,6.5,32,0.00,,---,0.00,VWS V14.01,2013-03-03 16:11:00,
2013-03-03 10:16:00,64.2,33.8,30.21,South,180,4.0,6.0,32,0.00,,---,0.00,VWS V14.01,2013-03-03 16:16:00,
2013-03-03 10:21:00,64.4,33.9,30.21,SE,135,6.3,6.3,32,0.00,,---,0.00,VWS V14.01,2013-03-03 16:21:00,
2013-03-03 10:26:00,64.9,32.8,30.21,South,180,1.6,5.8,30,0.00,,---,0.00,VWS V14.01,2013-03-03 16:26:00,
2013-03-03 10:31:00,66.2,32.2,30.21,SSW,202,7.8,8.5,28,0.00,,---,0.00,VWS V14.01,2013-03-03 16:31:00,
2013-03-03 10:36:00,66.4,32.3,30.18,South,180,4.9,6.5,28,0.00,,---,0.00,VWS V14.01,2013-03-03 16:36:00,
2013-03-03 10:41:00,66.7,30.8,30.18,South,180,12.5,12.5,26,0.00,,---,0.00,VWS V14.01,2013-03-03 16:41:00,
2013-03-03 10:46:00,66.9,30.9,30.18,SSW,202,9.6,13.9,26,0.00,,---,0.00,VWS V14.01,2013-03-03 16:46:00,
2013-03-03 10:51:00,67.4,30.4,30.18,SSW,202,5.4,10.1,25,0.00,,---,0.00,VWS V14.01,2013-03-03 16:51:00,
2013-03-03 10:56:00,67.4,29.4,30.18,SSW,202,7.6,10.7,24,0.00,,---,0.00,VWS V14.01,2013-03-03 16:56:00,
2013-03-03 11:01:00,67.8,30.7,30.18,SSW,202,10.7,14.5,25,0.00,,---,0.00,VWS V14.01,2013-03-03 17:01:00,
2013-03-03 11:06:00,68.1,30.0,30.18,South,180,7.6,12.1,24,0.00,,---,0.00,VWS V14.01,2013-03-03 17:06:00,
2013-03-03 11:11:00,68.7,30.5,30.18,SSE,158,3.4,6.3,24,0.00,,---,0.00,VWS V14.01,2013-03-03 17:11:00,
2013-03-03 11:16:00,68.8,30.6,30.18,SSW,202,8.5,9.8,24,0.00,,---,0.00,VWS V14.01,2013-03-03 17:16:00,
2013-03-03 11:21:00,68.8,30.6,30.18,South,180,12.8,17.5,24,0.00,,---,0.00,VWS V14.01,2013-03-03 17:21:00,
2013-03-03 11:26:00,69.0,29.7,30.18,SSW,202,10.1,17.7,23,0.00,,---,0.00,VWS V14.01,2013-03-03 17:26:00,
2013-03-03 11:31:00,69.2,29.9,30.18,SSW,202,10.1,10.1,23,0.00,,---,0.00,VWS V14.01,2013-03-03 17:31:00,
2013-03-03 11:36:00,69.6,30.2,30.18,SSW,202,13.0,13.0,23,0.00,,---,0.00,VWS V14.01,2013-03-03 17:36:00,
2013-03-03 11:41:00,69.6,30.2,30.18,South,180,10.1,10.1,23,0.00,,---,0.00,VWS V14.01,2013-03-03 17:41:00,
2013-03-03 11:46:00,68.7,29.4,30.18,SSW,202,10.5,17.0,23,0.00,,---,0.00,VWS V14.01,2013-03-03 17:46:00,
2013-03-03 11:51:00,69.2,29.9,30.12,SW,225,6.0,7.6,23,0.00,,---,0.00,VWS V14.01,2013-03-03 17:51:00,
2013-03-03 11:56:00,69.7,30.3,30.12,South,180,5.8,11.0,23,0.00,,---,0.00,VWS V14.01,2013-03-03 17:56:00,
2013-03-03 12:01:00,70.6,31.0,30.12,SSE,158,8.7,8.7,23,0.00,,---,0.00,VWS V14.01,2013-03-03 18:01:00,
2013-03-03 12:06:00,70.3,29.7,30.12,South,180,13.2,17.7,22,0.00,,---,0.00,VWS V14.01,2013-03-03 18:06:00,
2013-03-03 12:11:00,70.4,30.9,30.12,SSE,158,8.5,13.4,23,0.00,,---,0.00,VWS V14.01,2013-03-03 18:11:00,
2013-03-03 12:16:00,70.6,30.0,30.12,South,180,12.3,23.5,22,0.00,,---,0.00,VWS V14.01,2013-03-03 18:16:00,
2013-03-03 12:21:00,71.0,30.3,30.12,South,180,14.8,14.8,22,0.00,,---,0.00,VWS V14.01,2013-03-03 18:21:00,
2013-03-03 12:26:00,71.3,29.4,30.12,SE,135,8.1,12.8,21,0.00,,---,0.00,VWS V14.01,2013-03-03 18:26:00,
2013-03-03 12:31:00,71.2,29.3,30.12,South,180,7.8,7.8,21,0.00,,---,0.00,VWS V14.01,2013-03-03 18:31:00,
2013-03-03 12:36:00,71.7,29.7,30.12,SSW,202,10.3,10.7,21,0.00,,---,0.00,VWS V14.01,2013-03-03 18:36:00,
2013-03-03 12:41:00,71.5,25.8,30.12,SSW,202,10.7,14.5,18,0.00,,---,0.00,VWS V14.01,2013-03-03 18:41:00,
2013-03-03 12:46:00,72.0,26.2,30.12,SSW,202,9.0,9.8,18,0.00,,---,0.00,VWS V14.01,2013-03-03 18:46:00,
2013-03-03 12:51:00,72.4,23.7,30.12,SSE,158,6.5,15.4,16,0.00,,---,0.00,VWS V14.01,2013-03-03 18:51:00,
2013-03-03 12:56:00,72.2,18.7,30.12,South,180,8.1,22.8,13,0.00,,---,0.00,VWS V14.01,2013-03-03 18:56:00,
2013-03-03 13:01:00,72.0,18.5,30.12,South,180,13.2,16.1,13,0.00,,---,0.00,VWS V14.01,2013-03-03 19:01:00,
2013-03-03 13:06:00,73.5,30.0,30.09,SSE,158,14.3,14.3,20,0.00,,---,0.00,VWS V14.01,2013-03-03 19:06:00,
2013-03-03 13:11:00,73.8,19.9,30.09,SSW,202,17.7,17.7,13,0.00,,---,0.00,VWS V14.01,2013-03-03 19:11:00,
2013-03-03 13:16:00,72.9,8.2,30.09,SSW,202,8.5,9.6,8,0.00,,---,0.00,VWS V14.01,2013-03-03 19:16:00,
2013-03-03 13:21:00,73.5,-1.6,30.06,SSW,202,8.5,22.2,5,0.00,,---,0.00,VWS V14.01,2013-03-03 19:21:00,
2013-03-03 13:26:00,73.6,8.7,30.06,South,180,17.2,17.2,8,0.00,,---,0.00,VWS V14.01,2013-03-03 19:26:00,
2013-03-03 13:31:00,73.6,8.7,30.06,SE,135,10.1,17.2,8,0.00,,---,0.00,VWS V14.01,2013-03-03 19:31:00,
2013-03-03 13:36:00,73.6,-11.9,30.06,South,180,16.6,16.6,3,0.00,,---,0.00,VWS V14.01,2013-03-03 19:36:00,
2013-03-03 13:41:00,74.0,-1.2,30.06,South,180,7.4,17.0,5,0.00,,---,0.00,VWS V14.01,2013-03-03 19:41:00,
2013-03-03 13:46:00,73.8,-1.3,30.06,SSE,158,8.7,15.4,5,0.00,,---,0.00,VWS V14.01,2013-03-03 19:46:00,
2013-03-03 13:51:00,74.2,-11.6,30.06,SSE,158,8.5,13.2,3,0.00,,---,0.00,VWS V14.01,2013-03-03 19:51:00,
2013-03-03 13:56:00,74.2,-11.6,30.06,South,180,12.3,17.5,3,0.00,,---,0.00,VWS V14.01,2013-03-03 19:56:00,
2013-03-03 14:01:00,73.3,-20.1,30.06,SE,135,10.3,22.2,2,0.00,,---,0.00,VWS V14.01,2013-03-03 20:01:00,
2013-03-03 14:06:00,73.6,-19.9,30.03,South,180,11.4,20.1,2,0.00,,---,0.00,VWS V14.01,2013-03-03 20:06:00,
2013-03-03 14:11:00,74.3,-19.4,30.03,SSE,158,12.1,18.8,2,0.00,,---,0.00,VWS V14.01,2013-03-03 20:11:00,
2013-03-03 14:16:00,73.8,-19.8,30.03,SSE,158,11.0,19.7,2,0.00,,---,0.00,VWS V14.01,2013-03-03 20:16:00,
2013-03-03 14:21:00,75.1,-11.0,30.03,SSE,158,8.5,8.5,3,0.00,,---,0.00,VWS V14.01,2013-03-03 20:21:00,
2013-03-03 14:26:00,74.7,-19.2,30.03,SSW,202,12.5,12.5,2,0.00,,---,0.00,VWS V14.01,2013-03-03 20:26:00,
2013-03-03 14:31:00,75.6,-18.6,30.03,SSE,158,10.5,10.5,2,0.00,,---,0.00,VWS V14.01,2013-03-03 20:31:00,
2013-03-03 14:36:00,75.2,-18.9,30.00,SSW,202,10.5,14.5,2,0.00,,---,0.00,VWS V14.01,2013-03-03 20:36:00,
2013-03-03 14:41:00,74.5,-19.3,30.00,SSE,158,13.9,19.0,2,0.00,,---,0.00,VWS V14.01,2013-03-03 20:41:00,
2013-03-03 14:46:00,75.1,-19.0,30.00,SSE,158,8.7,17.7,2,0.00,,---,0.00,VWS V14.01,2013-03-03 20:46:00,
2013-03-03 14:51:00,75.2,-18.9,30.00,SSW,202,12.8,12.8,2,0.00,,---,0.00,VWS V14.01,2013-03-03 20:51:00,
2013-03-03 14:56:00,74.9,-19.1,30.00,SSW,202,12.8,12.8,2,0.00,,---,0.00,VWS V14.01,2013-03-03 20:56:00,
2013-03-03 15:01:00,74.9,-19.1,30.00,SSW,202,12.8,12.8,2,0.00,,---,0.00,VWS V14.01,2013-03-03 21:01:00,
2013-03-03 15:06:00,75.6,-18.6,30.00,SSW,202,12.8,12.8,2,0.00,,---,0.00,VWS V14.01,2013-03-03 21:06:00,
2013-03-03 15:11:00,75.1,-19.0,30.00,SSW,202,12.8,12.8,2,0.00,,---,0.00,VWS V14.01,2013-03-03 21:11:00,
2013-03-03 15:16:00,74.9,-19.1,30.00,SSW,202,12.8,12.8,2,0.00,,---,0.00,VWS V14.01,2013-03-03 21:16:00,
2013-03-03 15:21:00,75.4,-18.7,30.00,SSW,202,12.8,12.8,2,0.00,,---,0.00,VWS V14.01,2013-03-03 21:21:00,
2013-03-03 15:26:00,75.1,-19.0,30.00,SSW,202,12.8,12.8,2,0.00,,---,0.00,VWS V14.01,2013-03-03 21:26:00,
2013-03-03 15:31:00,75.6,-18.6,30.00,SSW,202,12.8,12.8,2,0.00,,---,0.00,VWS V14.01,2013-03-03 21:31:00,
2013-03-03 15:36:00,75.1,-19.0,30.00,SSW,202,12.8,12.8,2,0.00,,---,0.00,VWS V14.01,2013-03-03 21:36:00,
2013-03-03 15:41:00,75.6,-18.6,30.00,SSW,202,12.8,12.8,2,0.00,,---,0.00,VWS V14.01,2013-03-03 21:41:00,
2013-03-03 15:46:00,75.4,-18.7,30.00,SSW,202,12.8,12.8,2,0.00,,---,0.00,VWS V14.01,2013-03-03 21:46:00,
2013-03-03 15:51:00,74.9,-19.1,29.97,SSW,202,12.8,12.8,2,0.00,,---,0.00,VWS V14.01,2013-03-03 21:51:00,
2013-03-03 15:56:00,75.4,-18.7,29.97,SSW,202,12.8,12.8,2,0.00,,---,0.00,VWS V14.01,2013-03-03 21:56:00,
2013-03-03 16:01:00,75.4,-18.7,29.97,SSW,202,12.8,12.8,2,0.00,,---,0.00,VWS V14.01,2013-03-03 22:01:00,
2013-03-03 16:06:00,75.2,-18.9,29.97,SSW,202,12.8,12.8,2,0.00,,---,0.00,VWS V14.01,2013-03-03 22:06:00,
2013-03-03 16:11:00,75.2,-18.9,29.97,SSW,202,12.8,12.8,2,0.00,,---,0.00,VWS V14.01,2013-03-03 22:11:00,
2013-03-03 16:16:00,75.1,-19.0,29.97,SSW,202,12.8,12.8,2,0.00,,---,0.00,VWS V14.01,2013-03-03 22:16:00,
2013-03-03 16:21:00,75.1,-19.0,29.97,SSW,202,12.8,12.8,2,0.00,,---,0.00,VWS V14.01,2013-03-03 22:21:00,
2013-03-03 16:26:00,75.4,-18.7,29.97,SSW,202,12.8,12.8,2,0.00,,---,0.00,VWS V14.01,2013-03-03 22:26:00,
2013-03-03 16:31:00,75.2,-18.9,29.97,SSW,202,12.8,12.8,2,0.00,,---,0.00,VWS V14.01,2013-03-03 22:31:00,
2013-03-03 16:36:00,75.1,-19.0,29.94,SSW,202,12.8,12.8,2,0.00,,---,0.00,VWS V14.01,2013-03-03 22:36:00,
2013-03-03 16:41:00,74.9,-19.1,29.94,SSW,202,12.8,12.8,2,0.00,,---,0.00,VWS V14.01,2013-03-03 22:41:00,
2013-03-03 16:46:00,74.7,-19.2,29.94,SSW,202,12.8,12.8,2,0.00,,---,0.00,VWS V14.01,2013-03-03 22:46:00,
2013-03-03 16:51:00,74.7,-19.2,29.97,SSW,202,12.8,12.8,2,0.00,,---,0.00,VWS V14.01,2013-03-03 22:51:00,
2013-03-03 16:56:00,73.6,-19.9,29.97,SSE,158,11.0,12.5,2,0.00,,---,0.00,VWS V14.01,2013-03-03 22:56:00,
2013-03-03 17:01:00,73.6,-19.9,29.97,South,180,8.7,8.7,2,0.00,,---,0.00,VWS V14.01,2013-03-03 23:01:00,
2013-03-03 17:06:00,73.5,-20.0,29.94,South,180,9.2,9.2,2,0.00,,---,0.00,VWS V14.01,2013-03-03 23:06:00,
2013-03-03 17:11:00,73.1,-20.2,29.94,South,180,9.2,9.2,2,0.00,,---,0.00,VWS V14.01,2013-03-03 23:11:00,
2013-03-03 17:16:00,73.1,-20.2,29.94,South,180,9.2,9.2,2,0.00,,---,0.00,VWS V14.01,2013-03-03 23:16:00,
2013-03-03 17:21:00,73.1,-20.2,29.94,South,180,9.2,9.2,2,0.00,,---,0.00,VWS V14.01,2013-03-03 23:21:00,
2013-03-03 17:26:00,73.3,-20.1,29.94,South,180,9.2,9.2,2,0.00,,---,0.00,VWS V14.01,2013-03-03 23:26:00,
2013-03-03 17:31:00,72.8,-20.5,29.94,South,180,9.2,9.2,2,0.00,,---,0.00,VWS V14.01,2013-03-03 23:31:00,
2013-03-03 17:36:00,72.0,-20.9,29.94,South,180,9.2,9.2,2,0.00,,---,0.00,VWS V14.01,2013-03-03 23:36:00,
2013-03-03 17:41:00,71.5,-21.3,29.94,South,180,13.6,13.6,2,0.00,,---,0.00,VWS V14.01,2013-03-03 23:41:00,
2013-03-03 17:46:00,71.0,-21.6,29.94,SSW,202,6.7,6.7,2,0.00,,---,0.00,VWS V14.01,2013-03-03 23:46:00,
2013-03-03 17:51:00,70.4,-14.1,29.94,SSW,202,6.7,6.7,3,0.00,,---,0.00,VWS V14.01,2013-03-03 23:51:00,
2013-03-03 17:56:00,70.1,-14.3,29.94,SSW,202,6.7,6.7,3,0.00,,---,0.00,VWS V14.01,2013-03-03 23:56:00,
2013-03-03 18:01:00,69.9,-14.4,29.94,SSW,202,6.7,6.7,3,0.00,,---,0.00,VWS V14.01,2013-03-04 00:01:00,
2013-03-03 18:06:00,69.7,-14.6,29.94,SSW,202,6.7,6.7,3,0.00,,---,0.00,VWS V14.01,2013-03-04 00:06:00,
2013-03-03 18:11:00,69.6,-14.7,29.94,SSW,202,6.7,6.7,3,0.00,,---,0.00,VWS V14.01,2013-03-04 00:11:00,
2013-03-03 18:16:00,69.0,-9.3,29.94,SSW,202,6.7,6.7,4,0.00,,---,0.00,VWS V14.01,2013-03-04 00:16:00,
2013-03-03 18:21:00,68.7,-9.5,29.94,SSW,202,6.7,6.7,4,0.00,,---,0.00,VWS V14.01,2013-03-04 00:21:00,
2013-03-03 18:26:00,68.1,1.7,29.94,SSW,202,6.7,6.7,7,0.00,,---,0.00,VWS V14.01,2013-03-04 00:26:00,
2013-03-03 18:31:00,67.8,1.5,29.94,SSW,202,6.7,6.7,7,0.00,,---,0.00,VWS V14.01,2013-03-04 00:31:00,
2013-03-03 18:36:00,67.4,1.2,29.94,SSW,202,6.7,6.7,7,0.00,,---,0.00,VWS V14.01,2013-03-04 00:36:00,
2013-03-03 18:41:00,67.2,1.1,29.94,SE,135,6.3,10.5,7,0.00,,---,0.00,VWS V14.01,2013-03-04 00:41:00,
2013-03-03 18:46:00,67.1,1.0,29.94,South,180,8.1,8.1,7,0.00,,---,0.00,VWS V14.01,2013-03-04 00:46:00,
2013-03-03 18:51:00,66.7,8.4,29.94,South,180,6.0,7.8,10,0.00,,---,0.00,VWS V14.01,2013-03-04 00:51:00,
2013-03-03 18:56:00,66.4,8.2,29.94,South,180,4.3,5.6,10,0.00,,---,0.00,VWS V14.01,2013-03-04 00:56:00,
2013-03-03 19:01:00,66.0,7.9,29.94,ESE,112,5.6,7.6,10,0.00,,---,0.00,VWS V14.01,2013-03-04 01:01:00,
2013-03-03 19:07:00,65.8,11.8,29.94,SSE,158,4.9,4.9,12,0.00,,---,0.00,VWS V14.01,2013-03-04 01:07:00,
2013-03-03 19:12:00,65.3,11.4,29.94,SSE,158,4.0,4.0,12,0.00,,---,0.00,VWS V14.01,2013-03-04 01:12:00,
2013-03-03 19:17:00,65.1,11.3,29.94,SSE,158,4.0,4.3,12,0.00,,---,0.00,VWS V14.01,2013-03-04 01:17:00,
2013-03-03 19:22:00,64.8,16.1,29.94,SSE,158,5.8,6.0,15,0.00,,---,0.00,VWS V14.01,2013-03-04 01:22:00,
2013-03-03 19:27:00,64.4,15.8,29.94,SSE,158,3.1,4.0,15,0.00,,---,0.00,VWS V14.01,2013-03-04 01:27:00,
2013-03-03 19:32:00,63.9,18.2,29.94,SSE,158,2.5,4.9,17,0.00,,---,0.00,VWS V14.01,2013-03-04 01:32:00,
2013-03-03 19:37:00,63.5,25.1,29.94,SE,135,5.4,5.4,23,0.00,,---,0.00,VWS V14.01,2013-03-04 01:37:00,
2013-03-03 19:42:00,63.0,24.6,29.94,ESE,112,1.3,3.1,23,0.00,,---,0.00,VWS V14.01,2013-03-04 01:42:00,
2013-03-03 19:47:00,62.3,24.0,29.94,ESE,112,1.6,2.9,23,0.00,,---,0.00,VWS V14.01,2013-03-04 01:47:00,
2013-03-03 19:52:00,61.4,23.3,29.91,ESE,112,0.0,0.0,23,0.00,,---,0.00,VWS V14.01,2013-03-04 01:52:00,
2013-03-03 19:57:00,60.7,22.7,29.91,SE,135,0.0,0.0,23,0.00,,---,0.00,VWS V14.01,2013-03-04 01:57:00,
2013-03-03 20:02:00,60.3,23.4,29.91,SE,135,1.6,2.5,24,0.00,,---,1.25,VWS V14.01,2013-03-04 02:02:00,
2013-03-03 20:07:00,60.5,23.6,29.94,SE,135,2.7,2.7,24,0.00,,---,0.00,VWS V14.01,2013-03-04 02:07:00,
2013-03-03 20:12:00,60.3,23.4,29.94,SE,135,2.7,2.7,24,0.00,,---,0.00,VWS V14.01,2013-03-04 02:12:00,
2013-03-03 20:17:00,60.5,23.6,29.94,SE,135,2.7,2.7,24,0.00,,---,0.00,VWS V14.01,2013-03-04 02:17:00,
2013-03-03 20:22:00,60.7,24.7,29.94,SE,135,2.7,2.7,25,0.00,,---,0.00,VWS V14.01,2013-03-04 02:22:00,
2013-03-03 20:27:00,60.9,24.8,29.94,SE,135,2.7,2.7,25,0.00,,---,0.00,VWS V14.01,2013-03-04 02:27:00,
2013-03-03 20:32:00,60.7,24.7,29.94,SE,135,2.0,2.0,25,0.00,,---,0.00,VWS V14.01,2013-03-04 02:32:00,
2013-03-03 20:37:00,60.3,24.4,29.94,SE,135,2.2,2.9,25,0.00,,---,0.00,VWS V14.01,2013-03-04 02:37:00,
2013-03-03 20:42:00,60.2,25.2,29.94,SE,135,2.7,2.7,26,0.00,,---,0.00,VWS V14.01,2013-03-04 02:42:00,
2013-03-03 20:47:00,60.0,25.0,29.94,ESE,112,3.1,3.6,26,0.00,,---,0.00,VWS V14.01,2013-03-04 02:47:00,
2013-03-03 20:52:00,60.0,25.9,29.94,SE,135,2.9,3.6,27,0.00,,---,0.00,VWS V14.01,2013-03-04 02:52:00,
2013-03-03 20:57:00,59.8,25.8,29.94,SE,135,2.9,2.9,27,0.00,,---,0.00,VWS V14.01,2013-03-04 02:57:00,
2013-03-03 21:02:00,59.5,25.5,29.94,SE,135,3.6,3.6,27,0.00,,---,0.00,VWS V14.01,2013-03-04 03:02:00,
2013-03-03 21:07:00,59.3,26.2,29.94,SE,135,2.9,2.9,28,0.00,,---,0.00,VWS V14.01,2013-03-04 03:07:00,
2013-03-03 21:12:00,59.6,27.4,29.94,SE,135,3.1,5.4,29,0.00,,---,0.00,VWS V14.01,2013-03-04 03:12:00,
2013-03-03 21:17:00,60.3,28.8,29.94,SSE,158,12.8,12.8,30,0.00,,---,0.00,VWS V14.01,2013-03-04 03:17:00,
2013-03-03 21:22:00,61.4,32.1,29.94,ESE,112,5.4,8.5,33,0.00,,---,0.00,VWS V14.01,2013-03-04 03:22:00,
2013-03-03 21:27:00,61.8,32.4,29.94,South,180,9.6,9.6,33,0.00,,---,0.00,VWS V14.01,2013-03-04 03:27:00,
2013-03-03 21:32:00,61.8,33.1,29.94,SSE,158,7.6,7.6,34,0.00,,---,0.00,VWS V14.01,2013-03-04 03:32:00,
2013-03-03 21:37:00,61.6,33.0,29.91,SE,135,6.3,8.5,34,0.00,,---,0.00,VWS V14.01,2013-03-04 03:37:00,
2013-03-03 21:42:00,61.6,33.7,29.91,South,180,6.3,6.3,35,0.00,,---,0.00,VWS V14.01,2013-03-04 03:42:00,
2013-03-03 21:47:00,61.4,34.2,29.91,SSE,158,9.8,10.1,36,0.00,,---,0.00,VWS V14.01,2013-03-04 03:47:00,
2013-03-03 21:52:00,61.4,35.6,29.94,South,180,7.6,7.6,38,0.00,,---,0.00,VWS V14.01,2013-03-04 03:52:00,
2013-03-03 21:57:00,61.4,36.2,29.94,SE,135,8.7,8.7,39,0.00,,---,0.00,VWS V14.01,2013-03-04 03:57:00,
2013-03-03 22:02:00,61.0,36.6,29.94,South,180,10.1,10.1,40,0.00,,---,0.00,VWS V14.01,2013-03-04 04:02:00,
2013-03-03 22:07:00,60.9,36.4,29.94,SE,135,7.8,10.3,40,0.00,,---,0.00,VWS V14.01,2013-03-04 04:07:00,
2013-03-03 22:12:00,60.7,36.9,29.94,South,180,14.3,14.3,41,0.00,,---,0.00,VWS V14.01,2013-03-04 04:12:00,
2013-03-03 22:17:00,60.7,36.9,29.94,SE,135,8.5,8.5,41,0.00,,---,0.00,VWS V14.01,2013-03-04 04:17:00,
2013-03-03 22:22:00,60.3,36.6,29.91,South,180,5.4,6.0,41,0.00,,---,0.00,VWS V14.01,2013-03-04 04:22:00,
2013-03-03 22:27:00,60.2,37.0,29.91,SSE,158,3.4,5.4,42,0.00,,---,0.00,VWS V14.01,2013-03-04 04:27:00,
2013-03-03 22:32:00,60.0,36.8,29.91,South,180,6.3,6.3,42,0.00,,---,0.00,VWS V14.01,2013-03-04 04:32:00,
2013-03-03 22:37:00,59.8,37.3,29.94,SE,135,7.4,10.5,43,0.00,,---,0.00,VWS V14.01,2013-03-04 04:37:00,
2013-03-03 22:42:00,59.6,37.1,29.94,SE,135,6.0,8.1,43,0.00,,---,0.00,VWS V14.01,2013-03-04 04:42:00,
2013-03-03 22:47:00,59.5,37.0,29.94,SE,135,7.4,9.2,43,0.00,,---,0.00,VWS V14.01,2013-03-04 04:47:00,
2013-03-03 22:52:00,59.3,36.8,29.94,SSE,158,7.6,11.0,43,0.00,,---,0.00,VWS V14.01,2013-03-04 04:52:00,
2013-03-03 22:57:00,58.9,37.1,29.94,SE,135,8.1,8.7,44,0.00,,---,0.00,VWS V14.01,2013-03-04 04:57:00,
2013-03-03 23:00:00,58.9,37.1,29.94,South,180,7.6,8.7,44,0.00,,---,0.00,VWS V14.01,2013-03-04 05:00:00,
2013-03-03 23:05:00,58.9,37.1,29.94,SSE,158,5.4,7.6,44,0.00,,---,0.00,VWS V14.01,2013-03-04 05:05:00,
2013-03-03 23:10:00,58.7,36.9,29.94,SSE,158,10.3,10.3,44,0.00,,---,0.00,VWS V14.01,2013-03-04 05:10:00,
2013-03-03 23:15:00,58.6,36.7,29.94,SE,135,6.7,12.3,44,0.00,,---,0.00,VWS V14.01,2013-03-04 05:15:00,
2013-03-03 23:20:00,58.4,36.6,29.94,SSE,158,3.6,6.3,44,0.00,,---,0.00,VWS V14.01,2013-03-04 05:20:00,
2013-03-03 23:25:00,58.2,36.4,29.94,SE,135,8.1,9.4,44,0.00,,---,0.00,VWS V14.01,2013-03-04 05:25:00,
2013-03-03 23:30:00,58.0,36.8,29.94,SSE,158,5.6,5.6,45,0.00,,---,0.00,VWS V14.01,2013-03-04 05:30:00,
2013-03-03 23:35:00,57.9,36.7,29.94,South,180,11.2,11.2,45,0.00,,---,0.00,VWS V14.01,2013-03-04 05:35:00,
2013-03-03 23:40:00,57.9,36.7,29.94,SE,135,7.8,10.1,45,0.00,,---,0.00,VWS V14.01,2013-03-04 05:40:00,
2013-03-03 23:45:00,57.7,36.5,29.94,South,180,4.0,8.1,45,0.00,,---,0.00,VWS V14.01,2013-03-04 05:45:00,
2013-03-03 23:50:00,57.5,36.3,29.91,SSE,158,4.9,7.8,45,0.00,,---,0.00,VWS V14.01,2013-03-04 05:50:00,
2013-03-03 23:55:00,57.5,36.3,29.91,SSE,158,6.3,8.5,45,0.00,,---,0.00,VWS V14.01,2013-03-04 05:55:00,